sensor_id;sensor_type;location;lat;lon;timestamp;pressure;altitude;pressure_sealevel;temperature;humidity
51530;BME280;37613;51.788;21.582;2022-10-17T00:00:04;101058.98;;;10.57;83.88
51530;BME280;37613;51.788;21.582;2022-10-17T00:04:26;101062.19;;;10.56;83.87
51530;BME280;37613;51.788;21.582;2022-10-17T00:08:28;101069.92;;;10.54;83.86
51530;BME280;37613;51.788;21.582;2022-10-17T00:12:30;101073.35;;;10.51;83.81
51530;BME280;37613;51.788;21.582;2022-10-17T00:16:35;101068.10;;;10.49;83.93
51530;BME280;37613;51.788;21.582;2022-10-17T00:20:37;101073.61;;;10.46;84.05
51530;BME280;37613;51.788;21.582;2022-10-17T00:29:36;101076.47;;;10.41;84.36
51530;BME280;37613;51.788;21.582;2022-10-17T00:33:38;101088.04;;;10.44;84.76
51530;BME280;37613;51.788;21.582;2022-10-17T00:37:40;101087.92;;;10.46;84.79
51530;BME280;37613;51.788;21.582;2022-10-17T00:41:42;101091.78;;;10.51;84.84
51530;BME280;37613;51.788;21.582;2022-10-17T00:45:45;101090.07;;;10.53;84.83
51530;BME280;37613;51.788;21.582;2022-10-17T00:49:46;101089.48;;;10.56;84.98
51530;BME280;37613;51.788;21.582;2022-10-17T00:53:48;101087.48;;;10.60;85.02
51530;BME280;37613;51.788;21.582;2022-10-17T00:57:52;101087.81;;;10.62;84.90
51530;BME280;37613;51.788;21.582;2022-10-17T01:02:13;101089.78;;;10.61;84.85
51530;BME280;37613;51.788;21.582;2022-10-17T01:06:16;101093.79;;;10.59;84.82
51530;BME280;37613;51.788;21.582;2022-10-17T01:10:17;101095.16;;;10.57;84.85
51530;BME280;37613;51.788;21.582;2022-10-17T01:18:33;101081.67;;;10.52;84.89
51530;BME280;37613;51.788;21.582;2022-10-17T01:31:18;101089.67;;;10.36;85.02
51530;BME280;37613;51.788;21.582;2022-10-17T01:39:45;101091.25;;;10.26;84.96
51530;BME280;37613;51.788;21.582;2022-10-17T01:43:52;101101.08;;;10.19;84.88
51530;BME280;37613;51.788;21.582;2022-10-17T01:47:57;101098.62;;;10.09;84.95
51530;BME280;37613;51.788;21.582;2022-10-17T01:52:03;101109.38;;;10.10;85.01
51530;BME280;37613;51.788;21.582;2022-10-17T01:56:07;101111.42;;;10.10;85.24
51530;BME280;37613;51.788;21.582;2022-10-17T02:00:12;101114.88;;;10.13;85.52
51530;BME280;37613;51.788;21.582;2022-10-17T02:04:15;101112.70;;;10.14;85.58
51530;BME280;37613;51.788;21.582;2022-10-17T02:08:28;101110.67;;;10.17;85.71
51530;BME280;37613;51.788;21.582;2022-10-17T02:16:41;101108.27;;;10.23;85.75
51530;BME280;37613;51.788;21.582;2022-10-17T02:20:57;101117.91;;;10.27;85.94
51530;BME280;37613;51.788;21.582;2022-10-17T02:29:16;101114.95;;;10.31;85.82
51530;BME280;37613;51.788;21.582;2022-10-17T02:33:22;101114.95;;;10.31;85.92
51530;BME280;37613;51.788;21.582;2022-10-17T02:37:26;101116.89;;;10.28;85.79
51530;BME280;37613;51.788;21.582;2022-10-17T02:41:30;101117.99;;;10.23;85.67
51530;BME280;37613;51.788;21.582;2022-10-17T02:45:33;101107.52;;;10.18;85.57
51530;BME280;37613;51.788;21.582;2022-10-17T02:49:38;101105.88;;;10.13;85.55
51530;BME280;37613;51.788;21.582;2022-10-17T02:53:56;101109.64;;;10.07;85.68
51530;BME280;37613;51.788;21.582;2022-10-17T02:58:03;101111.93;;;10.02;85.75
51530;BME280;37613;51.788;21.582;2022-10-17T03:02:07;101110.36;;;9.97;85.68
51530;BME280;37613;51.788;21.582;2022-10-17T03:06:09;101107.73;;;9.91;85.73
51530;BME280;37613;51.788;21.582;2022-10-17T03:10:10;101110.39;;;9.86;85.68
51530;BME280;37613;51.788;21.582;2022-10-17T03:14:12;101122.84;;;9.80;85.68
51530;BME280;37613;51.788;21.582;2022-10-17T03:18:14;101127.20;;;9.75;86.00
51530;BME280;37613;51.788;21.582;2022-10-17T03:22:16;101126.95;;;9.74;86.26
51530;BME280;37613;51.788;21.582;2022-10-17T03:26:18;101130.52;;;9.71;86.14
51530;BME280;37613;51.788;21.582;2022-10-17T03:30:19;101138.11;;;9.68;86.16
51530;BME280;37613;51.788;21.582;2022-10-17T03:34:21;101154.05;;;9.66;86.39
51530;BME280;37613;51.788;21.582;2022-10-17T03:38:23;101158.27;;;9.66;86.37
51530;BME280;37613;51.788;21.582;2022-10-17T03:42:25;101165.00;;;9.62;86.33
51530;BME280;37613;51.788;21.582;2022-10-17T03:46:27;101175.79;;;9.61;86.63
51530;BME280;37613;51.788;21.582;2022-10-17T03:50:28;101187.06;;;9.60;86.65
51530;BME280;37613;51.788;21.582;2022-10-17T03:54:30;101177.67;;;9.52;86.59
51530;BME280;37613;51.788;21.582;2022-10-17T03:58:32;101183.65;;;9.51;86.51
51530;BME280;37613;51.788;21.582;2022-10-17T04:02:36;101193.63;;;9.56;86.59
51530;BME280;37613;51.788;21.582;2022-10-17T04:06:38;101187.43;;;9.58;86.66
51530;BME280;37613;51.788;21.582;2022-10-17T04:10:40;101180.02;;;9.59;86.79
51530;BME280;37613;51.788;21.582;2022-10-17T04:14:42;101179.66;;;9.61;86.75
51530;BME280;37613;51.788;21.582;2022-10-17T04:18:50;101185.73;;;9.61;86.79
51530;BME280;37613;51.788;21.582;2022-10-17T04:22:52;101192.58;;;9.60;86.67
51530;BME280;37613;51.788;21.582;2022-10-17T04:26:54;101200.92;;;9.58;86.71
51530;BME280;37613;51.788;21.582;2022-10-17T04:30:56;101193.34;;;9.54;86.99
51530;BME280;37613;51.788;21.582;2022-10-17T04:34:59;101192.34;;;9.59;87.14
51530;BME280;37613;51.788;21.582;2022-10-17T04:39:00;101196.93;;;9.60;87.13
51530;BME280;37613;51.788;21.582;2022-10-17T04:43:05;101198.66;;;9.59;87.01
51530;BME280;37613;51.788;21.582;2022-10-17T04:47:07;101196.98;;;9.58;87.17
51530;BME280;37613;51.788;21.582;2022-10-17T04:51:13;101198.57;;;9.58;87.20
51530;BME280;37613;51.788;21.582;2022-10-17T04:55:15;101203.56;;;9.60;87.37
51530;BME280;37613;51.788;21.582;2022-10-17T04:59:16;101211.93;;;9.61;87.18
51530;BME280;37613;51.788;21.582;2022-10-17T05:03:18;101213.48;;;9.59;87.28
51530;BME280;37613;51.788;21.582;2022-10-17T05:07:20;101216.16;;;9.59;87.31
51530;BME280;37613;51.788;21.582;2022-10-17T05:11:23;101216.48;;;9.59;87.27
51530;BME280;37613;51.788;21.582;2022-10-17T05:15:25;101212.54;;;9.58;87.38
51530;BME280;37613;51.788;21.582;2022-10-17T05:19:26;101217.64;;;9.62;87.60
51530;BME280;37613;51.788;21.582;2022-10-17T05:23:28;101225.21;;;9.65;87.59
51530;BME280;37613;51.788;21.582;2022-10-17T05:27:31;101230.89;;;9.69;87.66
51530;BME280;37613;51.788;21.582;2022-10-17T05:31:33;101233.21;;;9.75;87.84
51530;BME280;37613;51.788;21.582;2022-10-17T05:35:35;101237.95;;;9.83;87.81
51530;BME280;37613;51.788;21.582;2022-10-17T05:39:36;101237.98;;;9.92;87.93
51530;BME280;37613;51.788;21.582;2022-10-17T05:43:38;101239.05;;;10.04;88.45
51530;BME280;37613;51.788;21.582;2022-10-17T05:47:40;101249.55;;;10.20;88.79
51530;BME280;37613;51.788;21.582;2022-10-17T05:51:42;101254.38;;;10.37;88.67
51530;BME280;37613;51.788;21.582;2022-10-17T05:55:44;101259.63;;;10.53;88.64
51530;BME280;37613;51.788;21.582;2022-10-17T05:59:46;101268.25;;;10.68;88.71
51530;BME280;37613;51.788;21.582;2022-10-17T06:03:48;101279.56;;;10.83;88.73
51530;BME280;37613;51.788;21.582;2022-10-17T06:07:49;101281.08;;;10.99;88.65
51530;BME280;37613;51.788;21.582;2022-10-17T06:11:52;101284.98;;;11.17;88.77
51530;BME280;37613;51.788;21.582;2022-10-17T06:15:54;101294.28;;;11.37;88.76
51530;BME280;37613;51.788;21.582;2022-10-17T06:19:56;101300.28;;;11.59;88.87
51530;BME280;37613;51.788;21.582;2022-10-17T06:23:59;101310.88;;;11.89;88.82
51530;BME280;37613;51.788;21.582;2022-10-17T06:28:01;101316.52;;;12.18;88.77
51530;BME280;37613;51.788;21.582;2022-10-17T06:32:03;101315.41;;;12.48;88.41
51530;BME280;37613;51.788;21.582;2022-10-17T06:36:05;101313.53;;;12.77;88.19
51530;BME280;37613;51.788;21.582;2022-10-17T06:40:08;101318.73;;;13.04;88.01
51530;BME280;37613;51.788;21.582;2022-10-17T06:44:11;101322.48;;;13.25;87.63
51530;BME280;37613;51.788;21.582;2022-10-17T06:48:13;101328.34;;;13.32;87.50
51530;BME280;37613;51.788;21.582;2022-10-17T06:52:15;101338.99;;;13.34;87.64
51530;BME280;37613;51.788;21.582;2022-10-17T06:56:17;101346.19;;;13.43;87.69
51530;BME280;37613;51.788;21.582;2022-10-17T07:00:19;101346.48;;;13.53;87.58
51530;BME280;37613;51.788;21.582;2022-10-17T07:04:21;101346.39;;;13.63;87.52
51530;BME280;37613;51.788;21.582;2022-10-17T07:08:23;101346.29;;;13.75;87.66
51530;BME280;37613;51.788;21.582;2022-10-17T07:12:25;101348.96;;;13.86;87.72
51530;BME280;37613;51.788;21.582;2022-10-17T07:16:27;101350.67;;;13.98;87.34
51530;BME280;37613;51.788;21.582;2022-10-17T07:20:29;101350.39;;;14.05;87.23
51530;BME280;37613;51.788;21.582;2022-10-17T07:24:31;101350.09;;;14.11;87.09
51530;BME280;37613;51.788;21.582;2022-10-17T07:28:34;101349.17;;;14.19;87.03
51530;BME280;37613;51.788;21.582;2022-10-17T07:32:36;101353.79;;;14.27;86.99
51530;BME280;37613;51.788;21.582;2022-10-17T07:36:38;101368.30;;;14.34;86.81
51530;BME280;37613;51.788;21.582;2022-10-17T07:40:40;101369.20;;;14.42;86.67
51530;BME280;37613;51.788;21.582;2022-10-17T07:44:41;101359.69;;;14.54;86.77
51530;BME280;37613;51.788;21.582;2022-10-17T07:48:44;101357.17;;;14.68;86.73
51530;BME280;37613;51.788;21.582;2022-10-17T07:52:46;101362.20;;;14.81;86.59
51530;BME280;37613;51.788;21.582;2022-10-17T07:56:48;101365.71;;;14.94;86.46
51530;BME280;37613;51.788;21.582;2022-10-17T08:00:50;101367.39;;;15.06;86.25
51530;BME280;37613;51.788;21.582;2022-10-17T08:04:52;101365.23;;;15.21;86.22
51530;BME280;37613;51.788;21.582;2022-10-17T08:08:54;101370.94;;;15.38;85.47
51530;BME280;37613;51.788;21.582;2022-10-17T08:12:58;101357.13;;;15.55;85.56
51530;BME280;37613;51.788;21.582;2022-10-17T08:16:59;101347.30;;;15.75;85.65
51530;BME280;37613;51.788;21.582;2022-10-17T08:21:02;101353.10;;;15.99;85.48
51530;BME280;37613;51.788;21.582;2022-10-17T08:25:06;101357.23;;;16.23;85.28
51530;BME280;37613;51.788;21.582;2022-10-17T08:29:12;101365.55;;;16.45;84.98
51530;BME280;37613;51.788;21.582;2022-10-17T08:33:14;101368.23;;;16.65;84.60
51530;BME280;37613;51.788;21.582;2022-10-17T08:37:16;101378.23;;;16.87;84.34
51530;BME280;37613;51.788;21.582;2022-10-17T08:49:32;101383.21;;;17.40;83.47
51530;BME280;37613;51.788;21.582;2022-10-17T08:57:46;101384.54;;;17.68;83.02
51530;BME280;37613;51.788;21.582;2022-10-17T09:06:04;101382.67;;;17.99;82.43
51530;BME280;37613;51.788;21.582;2022-10-17T09:10:13;101385.73;;;18.17;82.34
51530;BME280;37613;51.788;21.582;2022-10-17T09:22:36;101382.61;;;18.65;81.16
51530;BME280;37613;51.788;21.582;2022-10-17T09:26:39;101384.06;;;18.76;80.68
51530;BME280;37613;51.788;21.582;2022-10-17T09:34:42;101368.17;;;18.98;78.93
51530;BME280;37613;51.788;21.582;2022-10-17T09:38:48;101369.83;;;19.01;79.24
51530;BME280;37613;51.788;21.582;2022-10-17T09:42:51;101372.79;;;19.09;79.28
51530;BME280;37613;51.788;21.582;2022-10-17T09:50:58;101374.31;;;19.24;78.15
51530;BME280;37613;51.788;21.582;2022-10-17T09:55:02;101376.91;;;19.40;77.72
51530;BME280;37613;51.788;21.582;2022-10-17T09:59:04;101379.87;;;19.49;77.51
51530;BME280;37613;51.788;21.582;2022-10-17T10:03:11;101382.38;;;19.57;77.30
51530;BME280;37613;51.788;21.582;2022-10-17T10:07:13;101379.91;;;19.65;76.01
51530;BME280;37613;51.788;21.582;2022-10-17T10:11:16;101379.70;;;19.72;76.01
51530;BME280;37613;51.788;21.582;2022-10-17T10:15:28;101379.77;;;19.80;75.90
51530;BME280;37613;51.788;21.582;2022-10-17T10:19:34;101375.98;;;19.86;75.73
51530;BME280;37613;51.788;21.582;2022-10-17T10:27:58;101366.63;;;20.04;74.67
51530;BME280;37613;51.788;21.582;2022-10-17T10:36:20;101356.53;;;20.11;74.62
51530;BME280;37613;51.788;21.582;2022-10-17T10:44:26;101356.70;;;20.29;74.15
51530;BME280;37613;51.788;21.582;2022-10-17T10:48:31;101355.41;;;20.41;74.04
51530;BME280;37613;51.788;21.582;2022-10-17T10:52:45;101344.55;;;20.42;72.82
51530;BME280;37613;51.788;21.582;2022-10-17T10:56:49;101348.17;;;20.45;72.36
51530;BME280;37613;51.788;21.582;2022-10-17T11:00:53;101344.29;;;20.47;71.95
51530;BME280;37613;51.788;21.582;2022-10-17T11:05:00;101340.50;;;20.43;71.35
51530;BME280;37613;51.788;21.582;2022-10-17T11:13:25;101325.92;;;20.27;70.42
51530;BME280;37613;51.788;21.582;2022-10-17T11:21:37;101323.46;;;20.29;70.88
51530;BME280;37613;51.788;21.582;2022-10-17T11:25:42;101321.56;;;20.35;70.96
51530;BME280;37613;51.788;21.582;2022-10-17T11:29:44;101320.76;;;20.43;70.61
51530;BME280;37613;51.788;21.582;2022-10-17T11:33:56;101318.58;;;20.48;69.89
51530;BME280;37613;51.788;21.582;2022-10-17T11:38:17;101318.19;;;20.54;69.92
51530;BME280;37613;51.788;21.582;2022-10-17T11:42:26;101310.72;;;20.64;69.27
51530;BME280;37613;51.788;21.582;2022-10-17T11:46:28;101307.85;;;20.76;68.90
51530;BME280;37613;51.788;21.582;2022-10-17T11:54:34;101303.90;;;20.86;68.72
51530;BME280;37613;51.788;21.582;2022-10-17T12:02:49;101294.52;;;20.98;67.72
51530;BME280;37613;51.788;21.582;2022-10-17T12:15:51;101287.30;;;21.00;67.02
51530;BME280;37613;51.788;21.582;2022-10-17T12:19:53;101287.59;;;20.99;67.05
51530;BME280;37613;51.788;21.582;2022-10-17T12:23:54;101289.98;;;21.06;67.47
51530;BME280;37613;51.788;21.582;2022-10-17T12:32:10;101277.70;;;21.17;66.88
51530;BME280;37613;51.788;21.582;2022-10-17T12:44:37;101280.05;;;21.38;66.85
51530;BME280;37613;51.788;21.582;2022-10-17T12:56:44;101275.33;;;21.43;66.37
51530;BME280;37613;51.788;21.582;2022-10-17T13:00:51;101275.09;;;21.43;66.56
51530;BME280;37613;51.788;21.582;2022-10-17T13:05:07;101276.56;;;21.48;66.40
51530;BME280;37613;51.788;21.582;2022-10-17T13:09:16;101273.13;;;21.53;66.30
51530;BME280;37613;51.788;21.582;2022-10-17T13:13:27;101271.34;;;21.53;66.14
51530;BME280;37613;51.788;21.582;2022-10-17T13:17:34;101272.05;;;21.54;66.08
51530;BME280;37613;51.788;21.582;2022-10-17T13:21:35;101269.03;;;21.55;66.45
51530;BME280;37613;51.788;21.582;2022-10-17T13:25:37;101263.88;;;21.58;66.16
51530;BME280;37613;51.788;21.582;2022-10-17T13:29:42;101264.84;;;21.61;65.81
51530;BME280;37613;51.788;21.582;2022-10-17T13:33:44;101262.36;;;21.60;65.81
51530;BME280;37613;51.788;21.582;2022-10-17T13:37:46;101255.46;;;21.63;65.94
51530;BME280;37613;51.788;21.582;2022-10-17T13:41:50;101252.75;;;21.65;65.51
51530;BME280;37613;51.788;21.582;2022-10-17T13:45:54;101248.71;;;21.62;65.46
51530;BME280;37613;51.788;21.582;2022-10-17T13:49:56;101246.20;;;21.61;65.27
51530;BME280;37613;51.788;21.582;2022-10-17T13:53:59;101240.50;;;21.57;64.97
51530;BME280;37613;51.788;21.582;2022-10-17T13:58:14;101239.23;;;21.51;65.34
51530;BME280;37613;51.788;21.582;2022-10-17T14:02:18;101235.67;;;21.40;65.19
51530;BME280;37613;51.788;21.582;2022-10-17T14:06:26;101238.58;;;21.29;65.51
51530;BME280;37613;51.788;21.582;2022-10-17T14:10:33;101237.38;;;21.16;65.56
51530;BME280;37613;51.788;21.582;2022-10-17T14:14:36;101230.28;;;21.02;65.55
51530;BME280;37613;51.788;21.582;2022-10-17T14:18:38;101229.05;;;20.92;65.47
51530;BME280;37613;51.788;21.582;2022-10-17T14:22:40;101234.91;;;20.82;65.68
51530;BME280;37613;51.788;21.582;2022-10-17T14:26:49;101227.88;;;20.72;65.92
51530;BME280;37613;51.788;21.582;2022-10-17T14:30:52;101228.96;;;20.57;65.95
51530;BME280;37613;51.788;21.582;2022-10-17T14:34:55;101231.63;;;20.43;66.33
51530;BME280;37613;51.788;21.582;2022-10-17T14:38:57;101236.41;;;20.27;66.74
51530;BME280;37613;51.788;21.582;2022-10-17T14:43:01;101233.16;;;20.12;66.76
51530;BME280;37613;51.788;21.582;2022-10-17T14:47:14;101229.91;;;19.93;66.93
51530;BME280;37613;51.788;21.582;2022-10-17T14:51:17;101226.12;;;19.72;67.05
51530;BME280;37613;51.788;21.582;2022-10-17T14:55:22;101225.34;;;19.51;67.36
51530;BME280;37613;51.788;21.582;2022-10-17T14:59:24;101223.59;;;19.30;67.68
51530;BME280;37613;51.788;21.582;2022-10-17T15:03:26;101217.98;;;19.06;67.88
51530;BME280;37613;51.788;21.582;2022-10-17T15:07:30;101221.15;;;18.83;68.00
51530;BME280;37613;51.788;21.582;2022-10-17T15:11:32;101232.12;;;18.63;68.39
51530;BME280;37613;51.788;21.582;2022-10-17T15:15:34;101228.86;;;18.42;68.61
51530;BME280;37613;51.788;21.582;2022-10-17T15:19:36;101229.59;;;18.22;68.87
51530;BME280;37613;51.788;21.582;2022-10-17T15:23:41;101228.44;;;18.02;69.12
51530;BME280;37613;51.788;21.582;2022-10-17T15:27:42;101227.08;;;17.79;69.35
51530;BME280;37613;51.788;21.582;2022-10-17T15:31:44;101234.45;;;17.64;69.76
51530;BME280;37613;51.788;21.582;2022-10-17T15:35:46;101224.59;;;17.40;70.08
51530;BME280;37613;51.788;21.582;2022-10-17T15:39:52;101230.27;;;17.27;70.21
51530;BME280;37613;51.788;21.582;2022-10-17T15:43:55;101220.95;;;17.02;70.36
51530;BME280;37613;51.788;21.582;2022-10-17T15:47:59;101227.88;;;16.88;70.75
51530;BME280;37613;51.788;21.582;2022-10-17T15:52:02;101230.56;;;16.73;70.84
51530;BME280;37613;51.788;21.582;2022-10-17T15:56:09;101235.08;;;16.58;71.05
51530;BME280;37613;51.788;21.582;2022-10-17T16:00:22;101239.09;;;16.44;71.32
51530;BME280;37613;51.788;21.582;2022-10-17T16:04:24;101243.00;;;16.35;71.66
51530;BME280;37613;51.788;21.582;2022-10-17T16:08:27;101243.77;;;16.26;71.86
51530;BME280;37613;51.788;21.582;2022-10-17T16:12:29;101241.20;;;16.19;72.11
51530;BME280;37613;51.788;21.582;2022-10-17T16:16:34;101241.88;;;16.13;72.16
51530;BME280;37613;51.788;21.582;2022-10-17T16:20:36;101239.27;;;16.08;72.36
51530;BME280;37613;51.788;21.582;2022-10-17T16:24:38;101241.69;;;16.06;72.69
51530;BME280;37613;51.788;21.582;2022-10-17T16:28:41;101244.41;;;16.02;72.76
51530;BME280;37613;51.788;21.582;2022-10-17T16:32:43;101242.36;;;15.98;72.89
51530;BME280;37613;51.788;21.582;2022-10-17T16:36:45;101241.11;;;15.96;73.06
51530;BME280;37613;51.788;21.582;2022-10-17T16:40:47;101234.59;;;15.93;73.23
51530;BME280;37613;51.788;21.582;2022-10-17T16:44:48;101242.73;;;15.89;73.25
51530;BME280;37613;51.788;21.582;2022-10-17T16:48:50;101244.52;;;15.84;73.33
51530;BME280;37613;51.788;21.582;2022-10-17T16:52:52;101248.56;;;15.85;73.72
51530;BME280;37613;51.788;21.582;2022-10-17T16:56:54;101248.32;;;15.89;74.18
51530;BME280;37613;51.788;21.582;2022-10-17T17:01:01;101252.97;;;15.99;74.17
51530;BME280;37613;51.788;21.582;2022-10-17T17:05:04;101247.97;;;16.07;74.22
51530;BME280;37613;51.788;21.582;2022-10-17T17:09:06;101246.59;;;16.09;74.18
51530;BME280;37613;51.788;21.582;2022-10-17T17:13:09;101246.52;;;16.08;74.22
51530;BME280;37613;51.788;21.582;2022-10-17T17:17:11;101247.83;;;16.06;74.27
51530;BME280;37613;51.788;21.582;2022-10-17T17:21:13;101245.21;;;16.02;74.42
51530;BME280;37613;51.788;21.582;2022-10-17T17:25:15;101243.08;;;15.99;74.37
51530;BME280;37613;51.788;21.582;2022-10-17T17:29:17;101239.52;;;15.94;74.50
51530;BME280;37613;51.788;21.582;2022-10-17T17:33:19;101237.48;;;15.88;74.54
51530;BME280;37613;51.788;21.582;2022-10-17T17:37:21;101233.92;;;15.83;74.79
51530;BME280;37613;51.788;21.582;2022-10-17T17:41:23;101231.58;;;15.75;74.67
51530;BME280;37613;51.788;21.582;2022-10-17T17:45:25;101235.52;;;15.68;74.92
51530;BME280;37613;51.788;21.582;2022-10-17T17:49:27;101240.96;;;15.60;75.08
51530;BME280;37613;51.788;21.582;2022-10-17T17:53:30;101243.05;;;15.52;75.26
51530;BME280;37613;51.788;21.582;2022-10-17T17:57:32;101242.29;;;15.43;75.36
51530;BME280;37613;51.788;21.582;2022-10-17T18:01:34;101241.73;;;15.40;75.74
51530;BME280;37613;51.788;21.582;2022-10-17T18:05:47;101241.20;;;15.34;75.51
51530;BME280;37613;51.788;21.582;2022-10-17T18:09:49;101237.80;;;15.25;75.59
51530;BME280;37613;51.788;21.582;2022-10-17T18:13:52;101241.01;;;15.18;75.94
51530;BME280;37613;51.788;21.582;2022-10-17T18:17:55;101240.14;;;15.10;76.09
51530;BME280;37613;51.788;21.582;2022-10-17T18:21:59;101233.80;;;15.00;76.10
51530;BME280;37613;51.788;21.582;2022-10-17T18:26:01;101232.39;;;14.92;76.17
51530;BME280;37613;51.788;21.582;2022-10-17T18:30:03;101230.98;;;14.84;76.34
51530;BME280;37613;51.788;21.582;2022-10-17T18:34:06;101234.33;;;14.74;76.39
51530;BME280;37613;51.788;21.582;2022-10-17T18:38:11;101235.36;;;14.66;76.61
51530;BME280;37613;51.788;21.582;2022-10-17T18:42:13;101230.59;;;14.61;76.90
51530;BME280;37613;51.788;21.582;2022-10-17T18:46:19;101229.71;;;14.57;76.94
51530;BME280;37613;51.788;21.582;2022-10-17T18:50:23;101226.70;;;14.49;76.93
51530;BME280;37613;51.788;21.582;2022-10-17T18:54:26;101222.77;;;14.42;76.91
51530;BME280;37613;51.788;21.582;2022-10-17T18:58:27;101222.85;;;14.34;77.36
51530;BME280;37613;51.788;21.582;2022-10-17T19:02:30;101218.79;;;14.30;77.50
51530;BME280;37613;51.788;21.582;2022-10-17T19:06:32;101211.79;;;14.24;77.65
51530;BME280;37613;51.788;21.582;2022-10-17T19:10:34;101216.70;;;14.21;77.81
51530;BME280;37613;51.788;21.582;2022-10-17T19:14:38;101219.34;;;14.20;77.88
51530;BME280;37613;51.788;21.582;2022-10-17T19:18:40;101217.42;;;14.17;78.01
51530;BME280;37613;51.788;21.582;2022-10-17T19:22:42;101211.88;;;14.16;78.20
51530;BME280;37613;51.788;21.582;2022-10-17T19:26:45;101210.52;;;14.18;77.99
51530;BME280;37613;51.788;21.582;2022-10-17T19:30:47;101211.21;;;14.15;78.19
51530;BME280;37613;51.788;21.582;2022-10-17T19:34:49;101214.32;;;14.13;78.12
51530;BME280;37613;51.788;21.582;2022-10-17T19:38:52;101216.39;;;14.12;78.08
51530;BME280;37613;51.788;21.582;2022-10-17T19:42:54;101218.38;;;14.11;78.09
51530;BME280;37613;51.788;21.582;2022-10-17T19:46:55;101218.76;;;14.08;78.06
51530;BME280;37613;51.788;21.582;2022-10-17T19:50:57;101218.91;;;14.05;78.31
51530;BME280;37613;51.788;21.582;2022-10-17T19:54:59;101223.75;;;14.02;78.50
51530;BME280;37613;51.788;21.582;2022-10-17T19:59:01;101226.70;;;13.97;78.40
51530;BME280;37613;51.788;21.582;2022-10-17T20:03:03;101222.78;;;13.91;78.48
51530;BME280;37613;51.788;21.582;2022-10-17T20:07:05;101217.05;;;13.86;78.58
51530;BME280;37613;51.788;21.582;2022-10-17T20:11:10;101213.38;;;13.81;78.79
51530;BME280;37613;51.788;21.582;2022-10-17T20:15:12;101207.33;;;13.78;78.69
51530;BME280;37613;51.788;21.582;2022-10-17T20:19:14;101201.29;;;13.73;78.75
51530;BME280;37613;51.788;21.582;2022-10-17T20:23:16;101199.05;;;13.69;78.88
51530;BME280;37613;51.788;21.582;2022-10-17T20:27:18;101204.91;;;13.62;78.79
51530;BME280;37613;51.788;21.582;2022-10-17T20:31:23;101205.36;;;13.55;78.71
51530;BME280;37613;51.788;21.582;2022-10-17T20:35:25;101200.00;;;13.47;79.06
51530;BME280;37613;51.788;21.582;2022-10-17T20:39:26;101197.22;;;13.41;79.06
51530;BME280;37613;51.788;21.582;2022-10-17T20:43:31;101190.52;;;13.37;79.10
51530;BME280;37613;51.788;21.582;2022-10-17T20:47:33;101184.30;;;13.32;79.10
51530;BME280;37613;51.788;21.582;2022-10-17T20:51:35;101179.76;;;13.26;79.17
51530;BME280;37613;51.788;21.582;2022-10-17T20:55:37;101175.58;;;13.18;79.31
51530;BME280;37613;51.788;21.582;2022-10-17T20:59:40;101171.89;;;13.10;79.30
51530;BME280;37613;51.788;21.582;2022-10-17T21:03:42;101172.40;;;13.03;79.40
51530;BME280;37613;51.788;21.582;2022-10-17T21:07:43;101170.23;;;12.99;79.37
51530;BME280;37613;51.788;21.582;2022-10-17T21:11:45;101161.61;;;12.89;79.71
51530;BME280;37613;51.788;21.582;2022-10-17T21:15:48;101156.03;;;12.86;80.17
51530;BME280;37613;51.788;21.582;2022-10-17T21:19:53;101163.03;;;12.86;80.10
51530;BME280;37613;51.788;21.582;2022-10-17T21:23:56;101154.36;;;12.83;80.58
51530;BME280;37613;51.788;21.582;2022-10-17T21:27:59;101149.42;;;12.81;80.35
51530;BME280;37613;51.788;21.582;2022-10-17T21:32:03;101144.50;;;12.81;80.66
51530;BME280;37613;51.788;21.582;2022-10-17T21:36:05;101142.63;;;12.83;81.03
51530;BME280;37613;51.788;21.582;2022-10-17T21:40:08;101141.20;;;12.84;80.83
51530;BME280;37613;51.788;21.582;2022-10-17T21:44:12;101140.42;;;12.86;80.88
51530;BME280;37613;51.788;21.582;2022-10-17T21:48:14;101137.17;;;12.90;80.79
51530;BME280;37613;51.788;21.582;2022-10-17T21:52:16;101133.13;;;12.90;80.93
51530;BME280;37613;51.788;21.582;2022-10-17T21:56:19;101126.23;;;12.90;81.06
51530;BME280;37613;51.788;21.582;2022-10-17T22:00:21;101124.09;;;12.91;81.35
51530;BME280;37613;51.788;21.582;2022-10-17T22:04:23;101122.42;;;12.92;81.35
51530;BME280;37613;51.788;21.582;2022-10-17T22:08:24;101120.98;;;12.90;81.45
51530;BME280;37613;51.788;21.582;2022-10-17T22:12:26;101118.45;;;12.89;81.28
51530;BME280;37613;51.788;21.582;2022-10-17T22:16:31;101117.97;;;12.87;81.31
51530;BME280;37613;51.788;21.582;2022-10-17T22:20:33;101117.55;;;12.84;81.42
51530;BME280;37613;51.788;21.582;2022-10-17T22:24:35;101112.06;;;12.79;81.37
51530;BME280;37613;51.788;21.582;2022-10-17T22:28:37;101106.71;;;12.75;81.38
51530;BME280;37613;51.788;21.582;2022-10-17T22:32:39;101101.70;;;12.70;82.37
51530;BME280;37613;51.788;21.582;2022-10-17T22:36:41;101104.28;;;12.67;81.88
51530;BME280;37613;51.788;21.582;2022-10-17T22:40:43;101102.70;;;12.65;82.05
51530;BME280;37613;51.788;21.582;2022-10-17T22:44:46;101098.17;;;12.62;82.12
51530;BME280;37613;51.788;21.582;2022-10-17T22:48:48;101099.91;;;12.62;82.12
51530;BME280;37613;51.788;21.582;2022-10-17T22:52:50;101103.06;;;12.60;82.34
51530;BME280;37613;51.788;21.582;2022-10-17T22:56:52;101108.52;;;12.58;82.59